Washington, DC (20001)

9:58 AM EDT on July 04, 2015 (GMT -0400)
Eckington Pl, NE | | Change Station
CLOSE
Current Station
Personal Weather Station
Location: Washington, DC
Elevation: 90 ft
Nearby Weather Stations
Active Advisory: Coastal Flood Advisory

Elev 90 ft 38.91 °N, 77.01 °W | Updated 9 seconds ago

Rain
Rain
71.3 °F
Feels Like 71.3 °F
N
3.0
Wind Variable Wind from WNW
Gusts 6.0 mph

Today
High -- | Low -- °F
--% Chance of Precip.
Yesterday
High -- | Low -- °F
Precip. -- in
5:47 AM 8:36 PM
Waning Gibbous, 92% visible
Pressure 29.92 in
Visibility 1.0 miles
Clouds Mostly Cloudy 800 ft
Mostly Cloudy 1700 ft
Overcast 3200 ft
Dew Point 67 °F
Humidity 87%
Rainfall -999.00 in
Snow Depth Not available.
UV 2 out of 12
Pollen .60 out of 12
Air Quality Not available.
Flu Activity Not available.
SPECI KDCA 041355Z 00000KT 1SM R01/3000VP6000FT RA BR BKN008 BKN017 OVC032 23/21 A2992 RMK AO2 P0001

More Conditions Fewer Conditions

Pressure 29.92 in
Visibility 1.0 miles
Clouds Mostly Cloudy 800 ft
Mostly Cloudy 1700 ft
Overcast 3200 ft
Dew Point 67 °F
Humidity 87%
Rainfall -999.00 in
Snow Depth Not available.
UV 2 out of 12
Pollen .60 out of 12
Air Quality Not available.
Flu Activity Not available.
SPECI KDCA 041355Z 00000KT 1SM R01/3000VP6000FT RA BR BKN008 BKN017 OVC032 23/21 A2992 RMK AO2 P0001

More Conditions Fewer Conditions

10-Day Weather Forecast

×

Almanac

Astronomy

Jul. 04, 2015 Rise Set
Actual Time
Civil Twilight
Nautical Twilight
Astronomical Twilight
Moon
Length of Visible Light
Length of Day
Tomorrow will be .
, % of the Moon is Illuminated

Today's Extremes

State Highs State Lows

Community

WunderPhotos

Upload Photos

1,834,965 photos uploaded!

WunderBlogs® & News

Nearby

Air Quality

  Air Quality AQ Index Pollutant
Not available.

Snow Depth

Station Depth Elevation

Earthquake Activity

City Distance Mag. Time & Date
Minimum magnitude displayed is 2.5.

Coastal Water Temperatures

Place Temperature

Stations

Nearby Weather Stations

Station Location Temp. Windchill Dew Point Humidity Wind Precip. Elev Updated Type
                   
Coastal Flood Advisory
Statement as of 6:54 AM EDT on July 04, 2015

... Coastal Flood Advisory remains in effect until noon EDT
today...

* tidal anomaly... 0.75 to 1.0 feet above normal.

* Timing... around the morning high tide.

* Expected impacts... minor shoreline inundation.

Here is the time of the next high tide...
for a few locations from north to south...
on the Chesapeake Bay...

Bowley Bar... 10:09 am...
Fort McHenry Baltimore... 8:56 am...
Annapolis U.S. Naval Academy... 7:38 am...

Now along the Potomac River...
Washington Channel... 10:13 am...
Alexandria... 10:31 am...

Precautionary/preparedness actions...

A coastal Flood Advisory indicates that onshore winds and tides
will combine to generate flooding of low areas along the shore.



Jackson